Time;durP1;ratioP1;P1;durP2;ratioP2;P2;SDS_P1;SDS_P2;PMS_P1;PMS_P2;Temp;Humidity;BMP_temperature;BMP_pressure;BME280_temperature;BME280_humidity;BME280_pressure;Samples;Min_cycle;Max_cycle;Signal;HPM_P1;HPM_P2
2023/05/22 00:02:23;;;;;;;6.03;2.67;;;;;;;14.94;76.40;101694.84;5098462;27;96773;-27
2023/05/22 00:04:49;;;;;;;10.10;2.65;;;;;;;14.99;76.28;101697.25;5097737;27;97460;-27
2023/05/22 00:07:15;;;;;;;3.78;2.10;;;;;;;14.96;76.92;101695.59;5079385;27;98911;-27
2023/05/22 00:09:40;;;;;;;6.53;2.95;;;;;;;14.88;77.41;101688.94;5098234;27;96828;-28
2023/05/22 00:12:06;;;;;;;4.53;2.53;;;;;;;14.88;77.32;101688.94;5098029;27;96873;-27
2023/05/22 00:14:31;;;;;;;4.47;2.58;;;;;;;14.83;77.35;101681.91;5097567;27;97942;-28
2023/05/22 00:16:58;;;;;;;5.03;2.25;;;;;;;14.85;76.66;101687.28;5098014;27;97360;-28
2023/05/22 00:19:24;;;;;;;7.22;2.63;;;;;;;14.83;77.25;101690.09;5079419;27;96566;-27
2023/05/22 00:21:50;;;;;;;4.00;2.00;;;;;;;14.83;77.42;101692.84;5098608;27;96806;-27
2023/05/22 00:24:15;;;;;;;4.93;2.42;;;;;;;14.82;76.86;101688.34;5097414;27;99287;-27
2023/05/22 00:26:40;;;;;;;3.80;2.13;;;;;;;14.77;77.75;101685.03;5097769;27;97541;-27
2023/05/22 00:29:06;;;;;;;6.43;2.38;;;;;;;14.77;78.20;101682.31;5096906;27;96642;-28
2023/05/22 00:31:31;;;;;;;5.93;2.22;;;;;;;14.75;77.98;101688.84;5097729;27;96889;-27
2023/05/22 00:33:57;;;;;;;6.13;2.28;;;;;;;14.75;77.52;101689.72;5097117;27;97854;-27
2023/05/22 00:36:23;;;;;;;5.78;2.33;;;;;;;14.78;77.55;101685.94;5078751;27;100840;-27
2023/05/22 00:38:48;;;;;;;4.20;2.90;;;;;;;14.79;77.26;101679.50;5097909;27;96641;-27
2023/05/22 00:41:13;;;;;;;7.32;3.10;;;;;;;14.78;76.96;101675.91;5077874;27;96922;-27
2023/05/22 00:43:39;;;;;;;7.00;2.85;;;;;;;14.74;76.91;101674.34;5097124;27;98968;-27
2023/05/22 00:46:06;;;;;;;8.60;2.30;;;;;;;14.69;77.18;101668.31;5097488;27;99890;-27
2023/05/22 00:48:31;;;;;;;7.35;2.75;;;;;;;14.76;76.88;101672.41;5097451;27;96575;-27
2023/05/22 00:50:58;;;;;;;5.53;2.75;;;;;;;14.75;77.49;101667.03;5097778;27;96507;-27
2023/05/22 00:53:25;;;;;;;8.23;2.65;;;;;;;14.72;77.28;101659.06;5078151;27;101436;-27
2023/05/22 00:55:52;;;;;;;7.68;2.63;;;;;;;14.75;76.79;101670.63;5078428;27;101090;-27
2023/05/22 00:58:18;;;;;;;8.05;2.72;;;;;;;14.73;77.40;101669.88;5078644;27;96602;-27
2023/05/22 01:00:45;;;;;;;9.27;2.65;;;;;;;14.66;77.44;101649.44;5097242;27;96812;-27
2023/05/22 01:03:11;;;;;;;5.05;2.58;;;;;;;14.63;77.22;101645.06;5078380;27;101031;-27
2023/05/22 01:05:38;;;;;;;5.88;2.88;;;;;;;14.65;78.04;101651.28;5078158;27;101423;-27
2023/05/22 01:08:05;;;;;;;6.72;2.72;;;;;;;14.68;77.36;101660.22;5078570;27;96774;-28
2023/05/22 01:10:32;;;;;;;6.43;2.40;;;;;;;14.65;77.66;101651.28;5097306;27;96844;-28
2023/05/22 01:12:57;;;;;;;3.78;2.35;;;;;;;14.63;77.58;101657.81;5096621;27;98022;-27
2023/05/22 01:15:41;;;;;;;8.45;2.80;;;;;;;14.61;78.54;101660.66;5096513;27;98999;-27
2023/05/22 01:18:18;;;;;;;6.55;2.72;;;;;;;14.54;78.62;101644.78;5077838;27;96657;-27
2023/05/22 01:20:48;;;;;;;5.68;2.55;;;;;;;14.52;79.43;101638.53;5097393;27;96519;-27
2023/05/22 01:23:24;;;;;;;5.35;2.63;;;;;;;14.51;79.02;101636.75;5096804;27;98109;-27
2023/05/22 01:26:35;;;;;;;8.98;2.72;;;;;;;14.49;79.47;101639.63;5078091;27;100762;-27
2023/05/22 01:29:27;;;;;;;7.05;2.78;;;;;;;14.48;79.66;101635.13;5070232;27;96852;-28
2023/05/22 01:31:56;;;;;;;6.75;2.75;;;;;;;14.47;79.03;101632.47;5078214;27;96719;-27
2023/05/22 01:34:22;;;;;;;5.35;2.55;;;;;;;14.42;79.57;101630.94;5077582;27;100968;-27
2023/05/22 01:36:49;;;;;;;5.80;2.85;;;;;;;14.43;79.11;101618.19;5096901;27;97300;-27
2023/05/22 01:39:16;;;;;;;5.82;2.67;;;;;;;14.37;79.47;101610.41;5078027;27;96696;-27
2023/05/22 01:41:42;;;;;;;7.38;2.88;;;;;;;14.32;79.75;101607.97;5078131;27;96884;-27
2023/05/22 01:44:07;;;;;;;3.85;2.10;;;;;;;14.35;80.41;101610.53;5095847;27;97927;-28
2023/05/22 01:46:32;;;;;;;8.32;3.17;;;;;;;14.36;79.66;101611.41;5096160;27;98623;-27
2023/05/22 01:48:58;;;;;;;6.10;2.92;;;;;;;14.36;80.42;101604.09;5096863;27;96551;-28
2023/05/22 01:51:52;;;;;;;4.32;2.20;;;;;;;14.36;80.27;101608.66;5096511;27;96925;-27
2023/05/22 01:54:37;;;;;;;7.68;2.28;;;;;;;14.35;79.80;101615.97;5077449;27;101021;-28
2023/05/22 01:57:11;;;;;;;6.35;2.95;;;;;;;14.35;79.75;101610.53;5096079;27;99213;-27
2023/05/22 01:59:44;;;;;;;4.72;2.20;;;;;;;14.32;80.54;101597.06;5078013;27;96587;-27
2023/05/22 02:02:12;;;;;;;6.60;2.53;;;;;;;14.33;80.12;101607.03;5078202;27;96824;-28
2023/05/22 02:04:41;;;;;;;4.60;2.65;;;;;;;14.37;80.20;101608.56;5077551;27;100775;-27
2023/05/22 02:07:10;;;;;;;7.78;2.47;;;;;;;14.31;80.32;101595.34;5077233;27;100992;-28
2023/05/22 02:09:37;;;;;;;7.57;2.85;;;;;;;14.34;79.26;101591.53;5076996;27;96502;-28
2023/05/22 02:12:04;;;;;;;6.53;2.92;;;;;;;14.23;79.82;101581.34;5077788;27;96849;-28
2023/05/22 02:14:30;;;;;;;8.98;2.85;;;;;;;14.27;80.43;101582.00;5077253;27;102338;-27
2023/05/22 02:16:56;;;;;;;6.80;2.85;;;;;;;14.31;80.59;101603.50;5077272;27;101328;-27
2023/05/22 02:19:22;;;;;;;5.65;2.47;;;;;;;14.27;80.02;101584.75;5096255;27;96515;-27
2023/05/22 02:21:47;;;;;;;12.90;3.42;;;;;;;14.30;80.49;101585.44;5095942;27;96967;-27
2023/05/22 02:24:13;;;;;;;10.80;3.53;;;;;;;14.26;80.52;101578.41;5095769;27;98468;-29
2023/05/22 02:26:38;;;;;;;5.28;2.80;;;;;;;14.34;79.93;101586.94;5096200;27;97885;-28
2023/05/22 02:29:04;;;;;;;6.72;3.17;;;;;;;14.33;80.25;101574.31;5096149;27;96491;-28
2023/05/22 02:31:30;;;;;;;10.65;3.30;;;;;;;14.37;80.31;101585.88;5077219;27;96968;-27
2023/05/22 02:33:55;;;;;;;5.68;3.28;;;;;;;14.30;79.94;101585.44;5094609;27;99374;-28
2023/05/22 02:36:21;;;;;;;8.13;3.78;;;;;;;14.29;79.48;101586.38;5095754;27;97324;-27
2023/05/22 02:38:47;;;;;;;8.38;3.03;;;;;;;14.25;79.61;101584.81;5077149;27;96563;-27
2023/05/22 02:41:12;;;;;;;6.43;3.38;;;;;;;14.20;80.53;101578.81;5096156;27;96761;-27
2023/05/22 02:43:38;;;;;;;10.80;3.42;;;;;;;14.16;80.40;101578.16;5095961;27;97402;-27
2023/05/22 02:46:03;;;;;;;5.93;3.33;;;;;;;14.23;80.59;101587.66;5095495;27;98689;-27
2023/05/22 02:48:28;;;;;;;6.97;3.05;;;;;;;14.22;81.38;101593.22;5096046;27;96501;-27
2023/05/22 02:50:54;;;;;;;8.65;4.05;;;;;;;14.18;80.40;101581.66;5096026;27;96875;-27
2023/05/22 02:53:20;;;;;;;9.20;2.58;;;;;;;14.18;80.26;101591.66;5095593;27;97986;-27
2023/05/22 02:55:45;;;;;;;6.88;3.30;;;;;;;14.21;80.76;101603.25;5076776;27;100662;-29
2023/05/22 02:58:11;;;;;;;6.20;2.72;;;;;;;14.17;80.64;101593.50;5095343;27;97013;-28
2023/05/22 03:00:37;;;;;;;6.03;3.13;;;;;;;14.16;80.06;101597.22;5095375;27;96853;-28
2023/05/22 03:03:03;;;;;;;7.57;3.45;;;;;;;14.20;80.11;101606.91;5076557;27;101012;-27
2023/05/22 03:05:30;;;;;;;8.40;3.35;;;;;;;14.19;80.01;101601.59;5078568;27;101010;-27
2023/05/22 03:07:56;;;;;;;7.65;3.33;;;;;;;14.17;81.08;101608.97;5099117;27;96660;-27
2023/05/22 03:10:21;;;;;;;9.15;2.90;;;;;;;14.16;80.63;101616.28;5080276;27;96694;-27
2023/05/22 03:12:47;;;;;;;5.55;3.10;;;;;;;14.07;80.50;101605.97;5098616;27;99802;-27
2023/05/22 03:15:12;;;;;;;10.82;3.80;;;;;;;14.08;80.71;101591.38;5099067;27;98943;-27
2023/05/22 03:17:38;;;;;;;5.40;3.22;;;;;;;14.07;81.24;101600.53;5098971;27;96547;-28
2023/05/22 03:20:04;;;;;;;7.85;3.35;;;;;;;14.05;80.81;101607.06;5099379;27;96794;-27
2023/05/22 03:22:29;;;;;;;9.15;3.05;;;;;;;14.06;80.55;101606.06;5079591;27;100801;-27
2023/05/22 03:24:55;;;;;;;9.88;3.25;;;;;;;14.10;80.13;101605.78;5098410;27;99130;-27
2023/05/22 03:27:20;;;;;;;6.68;2.88;;;;;;;14.03;81.08;101590.78;5080352;27;96486;-27
2023/05/22 03:29:45;;;;;;;4.82;3.00;;;;;;;14.02;80.89;101589.06;5098675;27;96876;-27
2023/05/22 03:32:11;;;;;;;7.63;3.28;;;;;;;14.02;81.81;101600.81;5097855;27;97517;-27
2023/05/22 03:34:36;;;;;;;7.25;3.42;;;;;;;14.00;82.47;101596.44;5079615;27;100807;-29
2023/05/22 03:37:02;;;;;;;7.30;4.00;;;;;;;13.96;81.72;101595.75;5080237;27;96791;-27
2023/05/22 03:39:27;;;;;;;6.65;3.85;;;;;;;13.98;81.20;101596.53;5099311;27;96841;-28
2023/05/22 03:41:52;;;;;;;6.65;3.33;;;;;;;14.03;81.22;101599.84;5098772;27;97433;-28
2023/05/22 03:44:18;;;;;;;8.27;3.83;;;;;;;14.02;81.88;101594.50;5098228;27;99152;-27
2023/05/22 03:46:43;;;;;;;12.73;4.03;;;;;;;14.02;81.53;101584.47;5098156;27;96729;-27
2023/05/22 03:49:08;;;;;;;8.07;3.60;;;;;;;13.98;82.01;101576.59;5098412;27;96784;-27
2023/05/22 03:51:34;;;;;;;7.88;3.50;;;;;;;13.95;81.78;101584.97;5097999;27;99021;-28
2023/05/22 03:53:59;;;;;;;12.15;4.25;;;;;;;13.99;82.25;101583.78;5097944;27;99084;-27
2023/05/22 03:56:25;;;;;;;11.85;4.55;;;;;;;13.93;82.90;101582.34;5098376;27;96749;-27
2023/05/22 03:58:50;;;;;;;6.38;3.78;;;;;;;13.97;82.95;101589.34;5079881;27;96795;-27
2023/05/22 04:01:16;;;;;;;8.98;4.32;;;;;;;13.94;82.51;101588.66;5098081;27;97905;-27
2023/05/22 04:03:42;;;;;;;11.95;4.95;;;;;;;13.91;82.24;101586.13;5098384;27;97916;-27
2023/05/22 04:06:07;;;;;;;14.85;4.32;;;;;;;13.96;82.80;101584.84;5098612;27;96507;-27
2023/05/22 04:08:32;;;;;;;14.63;5.38;;;;;;;13.97;82.96;101596.66;5098403;27;96719;-28
2023/05/22 04:10:58;;;;;;;11.88;4.72;;;;;;;13.96;82.27;101590.31;5096967;27;99399;-27
2023/05/22 04:13:23;;;;;;;12.32;5.10;;;;;;;13.99;81.85;101583.78;5097879;27;97804;-27
2023/05/22 04:15:49;;;;;;;9.60;4.82;;;;;;;14.01;83.08;101592.75;5097937;27;96668;-27
2023/05/22 04:18:14;;;;;;;14.30;5.45;;;;;;;13.97;82.67;101585.75;5097913;27;96884;-27
2023/05/22 04:20:41;;;;;;;12.82;5.00;;;;;;;13.97;83.05;101575.72;5097570;27;99664;-28
2023/05/22 04:23:07;;;;;;;8.43;4.45;;;;;;;14.01;82.70;101590.00;5078981;27;100968;-27
2023/05/22 04:25:33;;;;;;;11.27;4.32;;;;;;;14.03;82.20;101591.66;5098223;27;96482;-27
2023/05/22 04:28:01;;;;;;;16.02;5.32;;;;;;;14.02;82.46;101584.47;5098466;27;96800;-27
2023/05/22 04:30:26;;;;;;;13.02;4.82;;;;;;;14.01;82.61;101593.63;5078857;27;101010;-27
2023/05/22 04:32:52;;;;;;;8.40;4.63;;;;;;;14.02;83.09;101592.66;5096552;27;97816;-28
2023/05/22 04:35:18;;;;;;;11.68;4.72;;;;;;;14.03;82.74;101593.53;5097233;27;96582;-27
2023/05/22 04:37:44;;;;;;;11.20;4.50;;;;;;;14.07;82.56;101597.81;5079104;27;96811;-27
2023/05/22 04:40:11;;;;;;;11.88;4.35;;;;;;;14.05;82.26;101587.97;5078821;27;100661;-27
2023/05/22 04:42:37;;;;;;;10.60;4.50;;;;;;;14.14;81.83;101603.75;5078712;27;100881;-27
2023/05/22 04:45:06;;;;;;;9.10;4.13;;;;;;;14.16;82.32;101593.63;5078924;27;96696;-28
2023/05/22 04:47:31;;;;;;;11.30;4.68;;;;;;;14.16;81.74;101593.63;5079085;27;96931;-27
2023/05/22 04:49:58;;;;;;;11.07;5.00;;;;;;;14.16;81.91;101590.91;5097072;27;99390;-27
2023/05/22 04:52:24;;;;;;;10.68;4.57;;;;;;;14.15;82.41;101603.63;5078950;27;101087;-27
2023/05/22 04:54:51;;;;;;;12.05;4.72;;;;;;;14.15;83.62;101600.03;5097521;27;96618;-27
2023/05/22 04:57:17;;;;;;;11.38;4.28;;;;;;;14.20;82.16;101606.91;5078740;27;96891;-27
2023/05/22 04:59:42;;;;;;;8.15;4.10;;;;;;;14.17;82.09;101604.41;5078092;27;101134;-28
2023/05/22 05:02:08;;;;;;;8.75;4.75;;;;;;;14.19;82.38;101609.75;5078084;27;100870;-27
2023/05/22 05:04:33;;;;;;;11.15;4.25;;;;;;;14.21;82.45;101605.97;5097439;27;96691;-27
2023/05/22 05:06:59;;;;;;;10.77;4.50;;;;;;;14.21;82.26;101597.78;5097522;27;97151;-27
2023/05/22 05:09:24;;;;;;;13.15;4.82;;;;;;;14.21;81.96;101596.91;5096947;27;98022;-27
2023/05/22 05:11:51;;;;;;;9.38;4.43;;;;;;;14.26;82.02;101594.75;5096463;27;99435;-28
2023/05/22 05:14:16;;;;;;;17.52;4.40;;;;;;;14.32;81.82;101596.22;5097291;27;96582;-29
2023/05/22 05:16:42;;;;;;;9.93;4.07;;;;;;;14.36;82.12;101608.66;5097285;27;96903;-27
2023/05/22 05:19:07;;;;;;;14.25;4.50;;;;;;;14.38;81.17;101606.72;5078844;27;97495;-28
2023/05/22 05:21:33;;;;;;;8.85;4.20;;;;;;;14.35;81.80;101601.44;5096443;27;99117;-28
2023/05/22 05:23:58;;;;;;;9.30;4.32;;;;;;;14.39;82.00;101612.06;5096602;27;96756;-27
2023/05/22 05:26:25;;;;;;;9.63;4.47;;;;;;;14.42;80.96;101616.47;5097241;27;97106;-28
2023/05/22 05:28:51;;;;;;;13.07;4.38;;;;;;;14.35;81.83;101609.63;5077426;27;100872;-27
2023/05/22 05:31:20;;;;;;;7.38;4.30;;;;;;;14.38;81.76;101614.91;5077448;27;99891;-28
2023/05/22 05:33:45;;;;;;;10.38;4.35;;;;;;;14.31;82.61;101614.41;5096456;27;96829;-27
2023/05/22 05:36:11;;;;;;;8.63;3.83;;;;;;;14.33;82.47;101627.94;5096819;27;96768;-28
2023/05/22 05:38:36;;;;;;;8.52;3.50;;;;;;;14.32;81.96;101613.44;5096641;27;97957;-27
2023/05/22 05:41:01;;;;;;;6.75;3.63;;;;;;;14.35;81.77;101612.34;5078236;27;97984;-28
2023/05/22 05:43:27;;;;;;;5.43;3.17;;;;;;;14.38;81.29;101623.94;5078127;27;96695;-28
2023/05/22 05:45:52;;;;;;;9.02;3.80;;;;;;;14.41;81.37;101622.88;5096693;27;96824;-29
2023/05/22 05:48:17;;;;;;;7.55;4.07;;;;;;;14.38;81.86;101626.66;5095827;27;99388;-27
2023/05/22 05:50:43;;;;;;;8.90;4.07;;;;;;;14.47;80.84;101632.47;5096511;27;97966;-27
2023/05/22 05:53:08;;;;;;;9.38;3.67;;;;;;;14.50;80.75;101632.31;5096671;27;96553;-27
2023/05/22 05:55:34;;;;;;;7.90;4.00;;;;;;;14.49;81.23;101623.25;5096777;27;96797;-27
2023/05/22 05:57:59;;;;;;;7.30;3.95;;;;;;;14.52;81.70;101639.41;5096382;27;97419;-27
2023/05/22 06:00:25;;;;;;;14.82;4.75;;;;;;;14.53;80.74;101643.00;5095894;27;98744;-27
2023/05/22 06:02:50;;;;;;;12.65;4.20;;;;;;;14.54;81.17;101631.13;5096607;27;96621;-27
2023/05/22 06:05:17;;;;;;;7.13;3.95;;;;;;;14.58;80.94;101628.09;5096683;27;96829;-29
2023/05/22 06:07:43;;;;;;;7.68;4.10;;;;;;;14.63;81.19;101634.16;5095915;27;99825;-27
2023/05/22 06:10:10;;;;;;;8.02;4.22;;;;;;;14.74;81.19;101632.56;5077291;27;100821;-27
2023/05/22 06:12:36;;;;;;;15.93;4.82;;;;;;;14.83;81.84;101632.81;5077341;27;96532;-27
2023/05/22 06:15:04;;;;;;;10.60;4.65;;;;;;;14.97;81.30;101644.63;5096049;27;96822;-27
2023/05/22 06:17:30;;;;;;;10.27;4.57;;;;;;;15.01;81.10;101646.19;5095774;27;99409;-27
2023/05/22 06:19:55;;;;;;;12.45;4.88;;;;;;;15.13;80.15;101645.34;5095683;27;99418;-27
2023/05/22 06:22:24;;;;;;;11.20;4.63;;;;;;;15.19;81.13;101638.63;5095976;27;96602;-27
2023/05/22 06:24:49;;;;;;;14.32;5.40;;;;;;;15.21;79.88;101642.13;5095792;27;96830;-27
2023/05/22 06:27:15;;;;;;;9.48;5.07;;;;;;;15.31;80.29;101651.44;5095498;27;99827;-28
2023/05/22 06:29:40;;;;;;;10.18;4.95;;;;;;;15.36;79.95;101651.13;5096006;27;99185;-28
2023/05/22 06:32:06;;;;;;;10.75;5.32;;;;;;;15.49;79.66;101654.72;5095953;27;96927;-27
2023/05/22 06:34:31;;;;;;;14.38;5.22;;;;;;;15.56;79.89;101661.50;5095638;27;96938;-28
2023/05/22 06:36:56;;;;;;;9.48;5.22;;;;;;;15.67;79.55;101656.19;5095145;27;97424;-27
2023/05/22 06:39:22;;;;;;;12.05;5.65;;;;;;;15.71;79.83;101668.69;5096041;27;101528;-27
2023/05/22 06:41:47;;;;;;;9.55;5.65;;;;;;;15.82;79.24;101670.66;5099821;27;96605;-27
2023/05/22 06:44:12;;;;;;;12.68;4.85;;;;;;;15.88;79.10;101672.09;5099549;27;96875;-28
2023/05/22 06:46:38;;;;;;;14.65;6.05;;;;;;;15.87;78.67;101670.31;5099086;27;98781;-27
2023/05/22 06:49:03;;;;;;;14.15;5.47;;;;;;;15.84;78.79;101674.16;5099407;27;97910;-28
2023/05/22 06:51:30;;;;;;;11.85;4.75;;;;;;;15.98;78.80;101683.25;5099712;27;96578;-27
2023/05/22 06:53:55;;;;;;;14.05;5.40;;;;;;;16.04;79.41;101680.06;5099791;27;96882;-29
2023/05/22 06:56:21;;;;;;;11.23;4.97;;;;;;;15.96;79.29;101682.47;5098846;27;98364;-27
2023/05/22 06:58:47;;;;;;;9.85;5.35;;;;;;;15.93;79.67;101659.84;5080053;27;101301;-28
2023/05/22 07:01:12;;;;;;;11.35;4.43;;;;;;;15.97;79.05;101665.97;5099032;27;96688;-27
2023/05/22 07:03:37;;;;;;;12.57;4.97;;;;;;;16.00;78.96;101671.22;5099283;27;96829;-27
2023/05/22 07:06:03;;;;;;;12.65;4.97;;;;;;;16.02;79.05;101691.13;5098655;27;99529;-28
2023/05/22 07:08:28;;;;;;;11.10;4.35;;;;;;;16.00;79.48;101684.88;5099045;27;97819;-27
2023/05/22 07:10:53;;;;;;;13.13;5.78;;;;;;;15.98;78.82;101667.72;5099202;27;96832;-27
2023/05/22 07:13:19;;;;;;;11.25;4.70;;;;;;;16.00;79.52;101673.94;5098900;27;97548;-27
2023/05/22 07:15:45;;;;;;;13.30;4.97;;;;;;;15.94;79.36;101677.09;5080147;27;99285;-28
2023/05/22 07:18:11;;;;;;;10.98;4.82;;;;;;;15.91;79.22;101680.94;5099237;27;97799;-27
2023/05/22 07:20:36;;;;;;;11.00;5.53;;;;;;;15.96;79.29;101690.66;5080438;27;96824;-27
2023/05/22 07:23:02;;;;;;;12.65;5.75;;;;;;;15.96;79.79;101694.25;5099163;27;96788;-27
2023/05/22 07:25:28;;;;;;;10.65;5.20;;;;;;;15.91;79.62;101675.47;5079383;27;101299;-27
2023/05/22 07:27:54;;;;;;;9.45;5.70;;;;;;;16.00;79.46;101679.41;5098374;27;99836;-27
2023/05/22 07:30:20;;;;;;;12.90;5.55;;;;;;;16.00;79.20;101673.94;5098982;27;96561;-27
2023/05/22 07:32:45;;;;;;;15.48;5.13;;;;;;;16.13;79.68;101669.31;5079304;27;96930;-28
2023/05/22 07:35:11;;;;;;;9.85;5.15;;;;;;;16.20;79.50;101666.16;5097532;27;97867;-28
2023/05/22 07:37:36;;;;;;;13.00;5.90;;;;;;;16.31;79.08;101674.47;5097606;27;97826;-27
2023/05/22 07:40:11;;;;;;;12.52;5.40;;;;;;;16.49;79.33;101661.31;5097481;27;96537;-29
2023/05/22 07:42:37;;;;;;;9.65;5.82;;;;;;;16.78;78.58;101670.09;5079500;27;96761;-28
2023/05/22 07:45:02;;;;;;;12.52;5.78;;;;;;;17.07;77.20;101675.28;5097200;27;99606;-27
2023/05/22 07:47:28;;;;;;;11.77;5.53;;;;;;;17.35;77.56;101674.03;5078580;27;101980;-27
2023/05/22 07:49:53;;;;;;;15.43;6.30;;;;;;;17.56;76.56;101671.50;5097055;27;96485;-28
2023/05/22 07:52:20;;;;;;;14.50;5.65;;;;;;;17.77;75.68;101677.16;5097097;27;96812;-28
2023/05/22 07:54:45;;;;;;;15.13;6.72;;;;;;;17.96;75.09;101676.63;5078331;27;100835;-28
2023/05/22 07:57:11;;;;;;;13.40;6.18;;;;;;;18.13;74.74;101686.22;5096807;27;99349;-27
2023/05/22 07:59:36;;;;;;;16.92;6.78;;;;;;;18.35;74.48;101696.34;5097457;27;96492;-27
2023/05/22 08:02:02;;;;;;;11.82;5.22;;;;;;;18.49;73.71;101682.38;5097251;27;96843;-27
2023/05/22 08:04:28;;;;;;;15.85;6.68;;;;;;;18.70;73.12;101690.72;5097000;27;97557;-28
2023/05/22 08:06:54;;;;;;;13.90;5.93;;;;;;;18.87;73.08;101681.09;5097116;27;99245;-27
2023/05/22 08:09:20;;;;;;;11.55;5.32;;;;;;;19.00;72.77;101683.72;5078474;27;96692;-30
2023/05/22 08:11:45;;;;;;;12.93;5.95;;;;;;;19.16;72.34;101675.03;5096838;27;96722;-28
2023/05/22 08:14:11;;;;;;;12.80;5.45;;;;;;;19.34;72.38;101689.97;5096205;27;98046;-28
2023/05/22 08:16:36;;;;;;;12.02;6.22;;;;;;;19.45;71.75;101678.94;5096439;27;98892;-28
2023/05/22 08:19:01;;;;;;;12.55;5.50;;;;;;;19.59;71.19;101679.59;5096904;27;96469;-27
2023/05/22 08:21:27;;;;;;;13.40;5.65;;;;;;;19.71;71.33;101679.47;5097040;27;96747;-28
2023/05/22 08:23:52;;;;;;;10.07;5.38;;;;;;;19.84;70.89;101678.38;5096568;27;97892;-28
2023/05/22 08:26:17;;;;;;;10.95;5.47;;;;;;;19.93;70.29;101677.56;5096749;27;97230;-28
2023/05/22 08:28:43;;;;;;;11.15;5.30;;;;;;;20.00;70.19;101678.78;5096471;27;96740;-28
2023/05/22 08:31:11;;;;;;;14.23;5.57;;;;;;;20.17;70.08;101677.28;5096976;27;96866;-28
2023/05/22 08:33:36;;;;;;;10.45;4.53;;;;;;;20.25;69.53;101669.19;5031978;27;1290199;-28
2023/05/22 08:36:02;;;;;;;10.18;4.90;;;;;;;20.37;69.42;101659.84;5097504;27;97834;-28
2023/05/22 08:38:27;;;;;;;9.30;4.38;;;;;;;20.57;69.18;101662.72;5097067;27;96626;-27
2023/05/22 08:40:54;;;;;;;12.52;5.47;;;;;;;20.65;68.49;101660.13;5097662;27;96839;-27
2023/05/22 08:43:20;;;;;;;11.32;5.43;;;;;;;20.74;68.81;101658.41;5078739;27;101025;-28
2023/05/22 08:45:51;;;;;;;16.38;5.38;;;;;;;20.86;68.06;101665.53;5078748;27;101371;-28
2023/05/22 08:48:21;;;;;;;8.23;4.70;;;;;;;20.94;67.58;101659.31;5097606;27;96607;-27
2023/05/22 08:50:56;;;;;;;13.27;5.70;;;;;;;21.15;67.52;101656.44;5078963;27;96839;-28
2023/05/22 08:53:23;;;;;;;11.05;5.00;;;;;;;21.26;67.63;101669.22;5076495;27;101635;-28
2023/05/22 08:55:48;;;;;;;10.98;4.63;;;;;;;21.33;67.50;101660.25;5058434;27;101018;-28
2023/05/22 08:58:15;;;;;;;11.00;5.03;;;;;;;21.48;67.03;101668.97;5058257;27;96660;-28
2023/05/22 09:00:40;;;;;;;10.50;5.43;;;;;;;21.47;65.98;101660.84;5058453;27;96977;-28
2023/05/22 09:03:08;;;;;;;16.83;5.53;;;;;;;21.59;66.06;101657.75;5074785;27;99437;-28
2023/05/22 09:05:35;;;;;;;13.00;4.78;;;;;;;21.79;65.72;101660.53;5057834;27;100935;-29
2023/05/22 09:08:03;;;;;;;11.57;5.18;;;;;;;21.76;64.95;101649.75;5075048;27;96720;-27
2023/05/22 09:10:28;;;;;;;8.32;4.97;;;;;;;21.86;64.62;101647.88;5058058;27;96958;-27
2023/05/22 09:13:06;;;;;;;9.30;4.30;;;;;;;22.03;64.42;101658.13;5084086;27;97969;-28
2023/05/22 09:15:32;;;;;;;13.68;5.03;;;;;;;22.09;64.58;101648.38;5075954;27;99777;-28
2023/05/22 09:17:59;;;;;;;11.60;5.15;;;;;;;22.30;63.93;101663.91;5057959;27;96644;-27
2023/05/22 09:20:25;;;;;;;8.32;4.90;;;;;;;22.31;63.67;101655.47;5058135;27;96886;-27
2023/05/22 09:22:50;;;;;;;8.98;4.78;;;;;;;22.44;63.04;101650.44;5076414;27;97432;-27
2023/05/22 09:25:20;;;;;;;8.70;4.90;;;;;;;22.50;62.52;101645.34;5076547;27;97223;-27
2023/05/22 09:27:49;;;;;;;11.85;5.00;;;;;;;22.64;62.85;101654.00;5057369;27;96638;-27
2023/05/22 09:30:16;;;;;;;11.63;5.30;;;;;;;22.70;62.83;101652.50;5076364;27;96793;-28
2023/05/22 09:32:41;;;;;;;10.38;4.82;;;;;;;22.88;62.43;101652.53;5075243;27;97512;-27
2023/05/22 09:35:07;;;;;;;8.98;4.70;;;;;;;22.92;61.44;101642.91;5076249;27;96572;-28
2023/05/22 09:37:37;;;;;;;7.65;4.15;;;;;;;22.87;62.08;101654.44;5076242;27;96541;-27
2023/05/22 09:40:05;;;;;;;9.88;4.85;;;;;;;22.97;62.37;101657.13;5076217;27;96679;-28
2023/05/22 09:42:32;;;;;;;9.38;4.80;;;;;;;23.11;61.43;101650.22;5057258;27;100943;-27
2023/05/22 09:45:02;;;;;;;9.45;4.47;;;;;;;23.29;61.48;101648.34;5057546;27;100874;-27
2023/05/22 09:47:28;;;;;;;9.25;4.80;;;;;;;23.38;61.25;101651.19;5057563;27;96775;-28
2023/05/22 09:49:56;;;;;;;10.35;5.15;;;;;;;23.50;60.61;101644.38;5076164;27;96788;-28
2023/05/22 09:52:23;;;;;;;7.68;4.80;;;;;;;23.59;60.98;101639.78;5056582;27;99333;-28
2023/05/22 09:54:54;;;;;;;10.25;4.75;;;;;;;23.67;58.92;101637.97;5056982;27;100930;-28
2023/05/22 09:57:24;;;;;;;8.13;4.88;;;;;;;23.77;60.60;101642.56;5075545;27;96740;-27
2023/05/22 09:59:53;;;;;;;11.05;4.63;;;;;;;23.94;60.08;101641.63;5057120;27;96831;-27
2023/05/22 10:02:21;;;;;;;11.68;4.80;;;;;;;24.00;60.16;101637.34;5056789;27;101031;-28
2023/05/22 10:04:48;;;;;;;9.57;4.55;;;;;;;24.04;60.22;101634.09;5056808;27;101148;-28
2023/05/22 10:07:16;;;;;;;8.85;4.40;;;;;;;24.17;59.44;101639.19;5057388;27;96561;-30
2023/05/22 10:09:45;;;;;;;12.07;4.80;;;;;;;24.11;59.82;101634.31;5075762;27;96801;-28
2023/05/22 10:12:15;;;;;;;14.43;4.70;;;;;;;24.07;59.38;101628.22;5056869;27;101093;-29
2023/05/22 10:14:41;;;;;;;7.45;4.38;;;;;;;24.24;57.93;101644.91;5075217;27;98101;-28
2023/05/22 10:17:07;;;;;;;13.90;4.68;;;;;;;24.39;59.04;101646.06;5056556;27;96740;-27
2023/05/22 10:19:35;;;;;;;9.25;4.50;;;;;;;24.47;58.82;101643.34;5057129;27;96863;-28
2023/05/22 10:22:02;;;;;;;9.50;4.88;;;;;;;24.62;57.77;101648.25;5056695;27;100861;-29
2023/05/22 10:24:28;;;;;;;10.02;4.28;;;;;;;24.42;59.06;101636.53;5056750;27;101063;-28
2023/05/22 10:26:54;;;;;;;9.45;5.30;;;;;;;24.57;57.63;101649.66;5056943;27;96635;-28
2023/05/22 10:29:35;;;;;;;9.95;4.70;;;;;;;24.80;57.66;101644.34;5075347;27;96850;-27
2023/05/22 10:32:11;;;;;;;9.77;4.17;;;;;;;25.03;57.28;101646.50;5056497;27;99297;-28
2023/05/22 10:34:52;;;;;;;8.73;3.95;;;;;;;24.87;57.27;101643.69;5075489;27;99349;-28
2023/05/22 10:37:40;;;;;;;9.05;4.38;;;;;;;24.65;58.01;101648.81;5056897;27;96688;-28
2023/05/22 10:40:13;;;;;;;9.43;4.95;;;;;;;24.71;57.10;101636.16;5056896;27;96724;-28
2023/05/22 10:42:39;;;;;;;12.95;5.15;;;;;;;24.67;57.84;101640.31;5056131;27;101248;-28
2023/05/22 10:45:09;;;;;;;9.23;4.63;;;;;;;24.79;57.33;101630.66;5056467;27;99612;-28
2023/05/22 10:47:35;;;;;;;8.23;4.93;;;;;;;24.98;57.25;101632.28;5056780;27;96759;-27
2023/05/22 10:50:08;;;;;;;7.95;4.57;;;;;;;25.08;56.46;101626.56;5075342;27;96981;-29
2023/05/22 10:52:34;;;;;;;13.63;5.13;;;;;;;25.08;55.87;101627.44;5056502;27;100842;-28
2023/05/22 10:55:00;;;;;;;9.15;4.47;;;;;;;25.09;56.66;101623.63;5056285;27;101038;-27
2023/05/22 10:57:26;;;;;;;8.15;4.68;;;;;;;25.19;56.57;101629.03;5075127;27;96579;-29
2023/05/22 11:00:25;;;;;;;12.55;4.55;;;;;;;25.19;55.24;101626.25;5075318;27;96768;-28
2023/05/22 11:03:03;;;;;;;11.23;4.57;;;;;;;25.15;55.35;101619.31;5074188;27;99265;-28
2023/05/22 11:05:28;;;;;;;9.43;4.22;;;;;;;24.80;56.88;101635.16;5056365;27;100658;-28
2023/05/22 11:08:30;;;;;;;14.63;4.30;;;;;;;24.39;57.71;101629.44;5074859;27;96566;-28
2023/05/22 11:10:59;;;;;;;8.15;3.80;;;;;;;24.14;58.31;101626.53;5074264;27;96876;-28
2023/05/22 11:13:26;;;;;;;10.65;4.35;;;;;;;24.26;57.69;101627.09;5056194;27;100978;-28
2023/05/22 11:15:53;;;;;;;12.18;4.00;;;;;;;24.51;58.13;101624.50;5055927;27;100754;-28
2023/05/22 11:18:19;;;;;;;14.25;4.95;;;;;;;24.63;57.21;101623.16;5056571;27;97137;-27
2023/05/22 11:20:45;;;;;;;10.75;4.35;;;;;;;24.80;57.35;101630.47;5074632;27;96852;-28